Time;durP1;ratioP1;P1;durP2;ratioP2;P2;SDS_P1;SDS_P2;PMS_P1;PMS_P2;Temp;Humidity;BMP_temperature;BMP_pressure;BME280_temperature;BME280_humidity;BME280_pressure;Samples;Min_cycle;Max_cycle;Signal;HPM_P1;HPM_P2
2022/06/06 00:00:51;;;;;;;17.63;10.60;;;15.40;99.90;;;;;;4998812;28;20335;-57
2022/06/06 00:03:19;;;;;;;20.27;12.45;;;15.40;99.90;;;;;;5002182;28;20487;-56
2022/06/06 00:05:47;;;;;;;20.25;12.18;;;15.40;99.90;;;;;;5020506;28;20129;-55
2022/06/06 00:08:15;;;;;;;22.15;13.50;;;15.30;99.90;;;;;;5027892;23;20057;-57
2022/06/06 00:10:43;;;;;;;20.25;13.10;;;15.30;99.90;;;;;;4989206;28;20308;-57
2022/06/06 00:13:10;;;;;;;22.48;13.77;;;15.20;99.90;;;;;;4993145;28;20053;-56
2022/06/06 00:15:36;;;;;;;19.67;12.75;;;15.20;99.90;;;;;;4975976;28;20038;-57
2022/06/06 00:18:03;;;;;;;17.65;13.10;;;15.10;99.90;;;;;;4989491;28;20053;-57
2022/06/06 00:20:30;;;;;;;17.23;12.52;;;15.20;99.90;;;;;;4988808;28;20049;-56
2022/06/06 00:22:57;;;;;;;19.85;12.68;;;15.10;99.90;;;;;;4991650;28;20916;-57
2022/06/06 00:25:23;;;;;;;21.08;13.52;;;15.10;99.90;;;;;;4982752;28;20066;-57
2022/06/06 00:27:49;;;;;;;20.67;13.82;;;15.00;99.90;;;;;;4988468;28;20065;-57
2022/06/06 00:30:15;;;;;;;24.55;12.40;;;15.00;99.90;;;;;;4975774;28;20115;-57
2022/06/06 00:35:25;;;;;;;;;;;14.90;99.90;;;;;;4990496;28;20132;-57
2022/06/06 00:37:50;;;;;;;18.70;12.05;;;14.90;99.90;;;;;;4992532;28;19925;-58
2022/06/06 00:40:21;;;;;;;16.63;11.40;;;14.70;99.90;;;;;;4981790;28;20084;-56
2022/06/06 00:42:47;;;;;;;16.85;12.20;;;14.70;99.90;;;;;;4991089;28;20069;-57
2022/06/06 00:45:33;;;;;;;19.92;12.35;;;14.70;99.90;;;;;;4993664;28;20421;-56
2022/06/06 00:48:16;;;;;;;18.00;12.15;;;14.60;99.90;;;;;;4992189;28;20057;-58
2022/06/06 00:51:05;;;;;;;21.02;12.23;;;14.60;99.90;;;;;;4992870;28;20042;-56
2022/06/06 00:53:45;;;;;;;18.38;12.40;;;14.60;99.90;;;;;;4991016;28;20102;-55
2022/06/06 00:56:25;;;;;;;22.55;11.98;;;14.50;99.90;;;;;;4986744;28;20516;-59
2022/06/06 00:58:53;;;;;;;16.52;10.05;;;14.40;99.90;;;;;;4993589;28;20547;-56
2022/06/06 01:01:20;;;;;;;16.55;10.07;;;14.40;99.90;;;;;;4987264;28;21246;-57
2022/06/06 01:03:46;;;;;;;13.18;9.02;;;14.40;99.90;;;;;;4986780;28;20049;-56
2022/06/06 01:06:15;;;;;;;15.23;8.95;;;14.50;99.90;;;;;;4978413;28;20390;-54
2022/06/06 01:08:42;;;;;;;17.08;8.38;;;14.40;99.90;;;;;;4985776;28;20065;-59
2022/06/06 01:11:08;;;;;;;16.30;9.10;;;14.30;99.90;;;;;;4989980;28;20489;-59
2022/06/06 01:13:37;;;;;;;15.32;9.88;;;14.30;99.90;;;;;;5011584;28;20049;-59
2022/06/06 01:16:39;;;;;;;14.98;8.88;;;14.30;99.90;;;;;;4972687;28;20112;-60
2022/06/06 01:19:33;;;;;;;17.17;8.98;;;14.20;99.90;;;;;;4989779;28;20044;-56
2022/06/06 01:22:13;;;;;;;17.10;8.95;;;14.10;99.90;;;;;;4988771;28;20493;-57
2022/06/06 01:24:42;;;;;;;20.85;8.68;;;14.10;99.90;;;;;;4986705;28;20034;-57
2022/06/06 01:27:14;;;;;;;20.05;9.95;;;14.10;99.90;;;;;;4992732;28;21105;-57
2022/06/06 01:29:47;;;;;;;19.35;9.60;;;14.10;99.90;;;;;;4988626;28;20054;-59
2022/06/06 01:32:15;;;;;;;;;;;14.00;99.90;;;;;;4987210;28;20050;-59
2022/06/06 01:34:42;;;;;;;20.40;10.43;;;13.90;99.90;;;;;;4985803;28;20028;-61
2022/06/06 01:37:26;;;;;;;17.30;9.73;;;13.90;99.90;;;;;;4991772;28;20397;-57
2022/06/06 01:39:53;;;;;;;17.48;9.48;;;13.90;99.90;;;;;;4989165;28;20484;-60
2022/06/06 01:42:22;;;;;;;19.45;9.98;;;13.80;99.90;;;;;;4997088;28;20072;-58
2022/06/06 01:45:11;;;;;;;18.92;10.05;;;13.80;99.90;;;;;;4988874;28;20057;-61
2022/06/06 01:47:46;;;;;;;20.80;9.80;;;13.80;99.90;;;;;;4996197;28;20123;-61
2022/06/06 01:50:12;;;;;;;22.48;10.98;;;13.80;99.90;;;;;;5013794;28;20042;-60
2022/06/06 01:52:52;;;;;;;19.58;10.13;;;13.80;99.90;;;;;;4996628;28;20048;-62
2022/06/06 01:55:19;;;;;;;21.27;11.55;;;13.80;99.90;;;;;;4996254;28;20052;-57
2022/06/06 01:57:46;;;;;;;23.65;11.80;;;13.90;99.90;;;;;;4993312;28;20042;-62
2022/06/06 02:00:13;;;;;;;14.90;9.75;;;13.80;99.90;;;;;;4999906;28;20052;-62
2022/06/06 02:02:40;;;;;;;25.00;10.70;;;13.80;99.90;;;;;;4975374;28;20061;-59
2022/06/06 02:05:06;;;;;;;17.75;10.93;;;13.80;99.90;;;;;;4996705;28;20077;-61
2022/06/06 02:07:33;;;;;;;20.30;10.43;;;13.80;99.90;;;;;;4993927;28;20084;-61
2022/06/06 02:09:58;;;;;;;18.10;10.30;;;13.90;99.90;;;;;;4989168;28;20054;-60
2022/06/06 02:12:24;;;;;;;22.20;11.27;;;13.90;99.90;;;;;;4992883;28;20064;-60
2022/06/06 02:14:50;;;;;;;19.27;10.80;;;13.90;99.90;;;;;;4978382;28;20504;-60
2022/06/06 02:17:15;;;;;;;18.02;10.85;;;13.90;99.90;;;;;;4993600;28;20030;-60
2022/06/06 02:19:42;;;;;;;18.05;10.20;;;14.00;99.90;;;;;;4981921;28;20650;-61
2022/06/06 02:22:08;;;;;;;20.13;11.43;;;14.00;99.90;;;;;;5008326;28;20038;-58
2022/06/06 02:24:34;;;;;;;16.77;10.98;;;14.00;99.90;;;;;;4989013;28;20255;-60
2022/06/06 02:27:00;;;;;;;18.98;10.85;;;14.00;99.90;;;;;;4994983;28;22182;-58
2022/06/06 02:29:26;;;;;;;19.33;10.73;;;14.00;99.90;;;;;;4993806;28;20456;-60
2022/06/06 02:31:51;;;;;;;20.55;10.75;;;14.00;99.90;;;;;;4992696;28;20401;-61
2022/06/06 02:34:17;;;;;;;16.13;10.23;;;14.00;99.90;;;;;;4994393;28;20493;-57
2022/06/06 02:36:43;;;;;;;16.05;9.63;;;14.00;99.90;;;;;;5004947;28;20100;-60
2022/06/06 02:39:08;;;;;;;14.80;8.13;;;14.10;99.90;;;;;;4987250;28;20050;-62
2022/06/06 02:41:34;;;;;;;15.93;8.90;;;14.10;99.90;;;;;;4995008;28;20045;-55
2022/06/06 02:44:00;;;;;;;13.93;8.45;;;14.10;99.90;;;;;;4989331;28;20102;-57
2022/06/06 02:46:26;;;;;;;13.27;7.63;;;14.10;99.90;;;;;;4999036;28;20050;-58
2022/06/06 02:48:52;;;;;;;11.90;8.10;;;14.10;99.90;;;;;;4987867;28;20049;-61
2022/06/06 02:51:17;;;;;;;12.05;8.50;;;14.10;99.90;;;;;;4992739;28;20057;-60
2022/06/06 02:53:43;;;;;;;13.18;9.18;;;14.10;99.90;;;;;;4988303;28;21909;-61
2022/06/06 02:56:09;;;;;;;14.57;8.70;;;14.10;99.90;;;;;;4989158;28;20046;-58
2022/06/06 02:58:34;;;;;;;14.25;8.40;;;14.10;99.90;;;;;;5001103;28;20448;-59
2022/06/06 03:01:07;;;;;;;14.77;8.27;;;14.10;99.90;;;;;;4992452;28;20038;-60
2022/06/06 03:03:34;;;;;;;13.43;8.32;;;14.10;99.90;;;;;;5009851;28;20454;-56
2022/06/06 03:06:07;;;;;;;15.45;9.35;;;14.10;99.90;;;;;;4975654;28;20050;-58
2022/06/06 03:08:51;;;;;;;16.60;8.52;;;14.10;99.90;;;;;;4993930;28;20077;-56
2022/06/06 03:11:55;;;;;;;12.50;8.38;;;14.10;99.90;;;;;;4998636;28;20485;-57
2022/06/06 03:14:29;;;;;;;12.70;7.70;;;14.20;99.90;;;;;;4985016;28;20092;-60
2022/06/06 03:23:22;;;;;;;10.77;7.20;;;14.20;99.90;;;;;;4992560;28;20045;-60
2022/06/06 03:26:11;;;;;;;14.52;8.77;;;14.20;99.90;;;;;;4979133;28;20108;-60
2022/06/06 03:28:55;;;;;;;10.18;7.28;;;14.20;99.90;;;;;;4988049;28;20397;-59
2022/06/06 03:31:40;;;;;;;;;;;14.20;99.90;;;;;;4987378;28;20106;-58
2022/06/06 03:34:25;;;;;;;9.60;7.20;;;14.10;99.90;;;;;;4986066;28;19917;-58
2022/06/06 03:36:54;;;;;;;11.57;7.50;;;14.10;99.90;;;;;;4997186;28;20061;-58
2022/06/06 03:39:24;;;;;;;10.50;7.72;;;14.20;99.90;;;;;;4985317;28;20133;-59
2022/06/06 03:42:01;;;;;;;11.65;7.20;;;14.20;99.90;;;;;;4989820;28;20068;-58
2022/06/06 03:44:39;;;;;;;12.07;7.53;;;14.20;99.90;;;;;;4988793;28;20077;-59
2022/06/06 03:47:15;;;;;;;11.13;6.80;;;14.30;99.90;;;;;;5003604;28;20077;-58
2022/06/06 03:50:01;;;;;;;13.85;7.57;;;14.30;99.90;;;;;;4985067;28;20054;-58
2022/06/06 03:52:38;;;;;;;10.13;7.50;;;14.30;99.90;;;;;;4994202;28;20097;-59
2022/06/06 03:55:29;;;;;;;11.57;7.45;;;14.30;99.90;;;;;;4988746;28;20042;-58
2022/06/06 03:57:56;;;;;;;11.60;7.70;;;14.30;99.90;;;;;;4989877;28;20504;-58
2022/06/06 04:00:23;;;;;;;11.98;7.53;;;14.30;99.90;;;;;;4993164;28;22878;-59
2022/06/06 04:02:49;;;;;;;9.63;6.63;;;14.30;99.90;;;;;;4977772;28;20057;-59
2022/06/06 04:05:19;;;;;;;9.35;6.40;;;14.30;99.90;;;;;;4994845;28;20046;-59
2022/06/06 04:07:46;;;;;;;10.50;7.28;;;14.30;99.90;;;;;;4991752;28;20049;-59
2022/06/06 04:10:12;;;;;;;9.15;6.68;;;14.30;99.90;;;;;;4994509;28;20042;-59
2022/06/06 04:13:05;;;;;;;8.60;6.07;;;14.30;99.90;;;;;;5013272;28;20130;-58
2022/06/06 04:15:36;;;;;;;10.38;6.38;;;14.40;99.90;;;;;;4996095;28;20136;-58
2022/06/06 04:18:43;;;;;;;10.02;7.05;;;14.30;99.90;;;;;;4994889;28;20414;-58
2022/06/06 04:21:28;;;;;;;9.55;6.72;;;14.40;99.90;;;;;;4987989;28;20039;-59
2022/06/06 04:24:12;;;;;;;12.63;7.68;;;14.40;99.90;;;;;;5002284;28;20057;-59
2022/06/06 04:26:53;;;;;;;12.15;7.32;;;14.40;99.90;;;;;;4972797;28;20042;-59
2022/06/06 04:29:31;;;;;;;8.82;7.55;;;14.40;99.90;;;;;;4994244;28;20432;-58
2022/06/06 04:32:42;;;;;;;9.40;7.25;;;14.40;99.90;;;;;;4977039;28;20050;-59
2022/06/06 04:35:22;;;;;;;9.50;7.90;;;14.50;99.90;;;;;;4983478;28;20093;-59
2022/06/06 04:38:19;;;;;;;12.63;9.57;;;14.50;99.90;;;;;;5006358;28;20049;-59
2022/06/06 04:40:55;;;;;;;9.65;6.85;;;14.50;99.90;;;;;;4994916;28;20048;-59
2022/06/06 04:44:04;;;;;;;6.65;4.60;;;14.50;99.90;;;;;;4996131;28;20038;-58
2022/06/06 04:46:38;;;;;;;4.57;3.78;;;14.50;99.90;;;;;;4986267;28;20064;-58
2022/06/06 04:49:04;;;;;;;;;;;14.50;99.90;;;;;;4995790;28;20493;-58
2022/06/06 04:51:33;;;;;;;4.97;3.28;;;14.40;99.90;;;;;;4988438;28;19944;-58
2022/06/06 04:54:00;;;;;;;3.88;2.92;;;14.40;99.90;;;;;;4992763;28;21549;-58
2022/06/06 04:56:26;;;;;;;5.25;3.25;;;14.40;99.90;;;;;;4995608;28;20172;-58
2022/06/06 04:58:55;;;;;;;5.93;3.20;;;14.30;99.90;;;;;;4996275;28;20042;-58
2022/06/06 05:01:23;;;;;;;5.30;3.60;;;14.30;99.90;;;;;;4980525;28;20386;-59
2022/06/06 05:03:49;;;;;;;5.60;4.15;;;14.30;99.90;;;;;;4989566;28;20135;-59
2022/06/06 05:06:39;;;;;;;10.60;4.70;;;14.30;99.90;;;;;;4991677;28;20042;-58
2022/06/06 05:09:20;;;;;;;10.00;4.97;;;14.30;99.90;;;;;;4992688;28;20466;-58
2022/06/06 05:12:28;;;;;;;11.45;8.65;;;14.30;99.90;;;;;;4996162;28;20061;-59
2022/06/06 05:15:08;;;;;;;12.13;6.97;;;14.30;99.90;;;;;;4989782;23;20548;-60
2022/06/06 05:17:56;;;;;;;12.35;7.70;;;14.30;99.90;;;;;;4955895;28;20072;-60
2022/06/06 05:20:47;;;;;;;9.88;7.20;;;14.30;99.90;;;;;;4937768;28;20039;-59
2022/06/06 05:23:36;;;;;;;11.65;7.20;;;14.20;99.90;;;;;;4935919;28;20143;-59
2022/06/06 05:26:11;;;;;;;10.50;7.40;;;14.20;99.90;;;;;;4940264;28;20239;-59
2022/06/06 05:29:02;;;;;;;8.98;6.50;;;14.20;99.90;;;;;;4939822;28;20059;-60
2022/06/06 05:31:45;;;;;;;9.70;6.60;;;14.20;99.90;;;;;;4915457;29;20039;-60
2022/06/06 05:34:19;;;;;;;8.82;6.70;;;14.20;99.90;;;;;;4944913;28;20404;-62
2022/06/06 05:37:14;;;;;;;8.98;6.65;;;14.10;99.90;;;;;;4945217;28;21014;-61
2022/06/06 05:39:58;;;;;;;8.60;5.78;;;14.10;99.90;;;;;;4943602;28;20082;-62
2022/06/06 05:42:27;;;;;;;11.35;6.75;;;14.10;99.90;;;;;;4954090;28;20406;-61
2022/06/06 05:44:59;;;;;;;11.00;7.25;;;14.00;99.90;;;;;;4935373;28;20522;-61
2022/06/06 05:47:33;;;;;;;11.52;7.90;;;14.00;99.90;;;;;;4937822;29;20450;-62
2022/06/06 05:50:02;;;;;;;12.57;7.43;;;14.00;99.90;;;;;;4932787;28;20476;-62
2022/06/06 05:52:55;;;;;;;14.07;8.27;;;14.00;99.90;;;;;;4937240;28;20429;-61
2022/06/06 05:55:51;;;;;;;14.45;8.63;;;14.00;99.90;;;;;;4934106;28;21832;-60
2022/06/06 05:58:51;;;;;;;14.90;9.13;;;14.00;99.90;;;;;;4937578;28;20215;-60
2022/06/06 06:01:36;;;;;;;14.05;8.57;;;14.00;99.90;;;;;;4937130;28;20114;-61
2022/06/06 06:04:25;;;;;;;14.07;8.25;;;14.00;99.90;;;;;;4941542;28;20054;-62
2022/06/06 06:07:25;;;;;;;18.30;8.77;;;14.00;99.90;;;;;;4933674;28;20403;-60
2022/06/06 06:10:04;;;;;;;15.20;7.50;;;13.90;99.90;;;;;;4932089;28;20106;-61
2022/06/06 06:13:04;;;;;;;11.93;7.82;;;13.90;99.90;;;;;;4954531;28;20135;-60
2022/06/06 06:15:40;;;;;;;14.45;8.48;;;13.80;99.90;;;;;;4934239;28;20066;-60
2022/06/06 06:18:10;;;;;;;14.05;8.60;;;13.80;99.90;;;;;;4930971;28;20514;-62
2022/06/06 06:20:42;;;;;;;13.23;7.97;;;13.80;99.90;;;;;;4936968;29;20046;-62
2022/06/06 06:23:14;;;;;;;11.60;8.02;;;13.80;99.90;;;;;;4938494;29;20042;-59
2022/06/06 06:25:41;;;;;;;11.27;7.95;;;13.80;99.90;;;;;;4927827;28;20063;-59
2022/06/06 06:28:11;;;;;;;10.00;5.97;;;13.90;99.90;;;;;;4947558;28;20150;-60
2022/06/06 06:30:46;;;;;;;7.40;4.30;;;13.90;99.90;;;;;;4936688;28;20126;-61
2022/06/06 06:33:20;;;;;;;6.95;3.40;;;13.80;99.90;;;;;;4931090;28;20039;-61
2022/06/06 06:36:16;;;;;;;6.00;3.17;;;13.90;99.90;;;;;;4931139;28;20162;-61
2022/06/06 06:39:06;;;;;;;6.72;3.20;;;13.90;99.90;;;;;;4947426;28;20141;-59
2022/06/06 06:41:41;;;;;;;4.68;3.22;;;13.90;99.90;;;;;;4937463;28;20042;-61
2022/06/06 06:44:09;;;;;;;4.85;3.25;;;13.90;99.90;;;;;;4937323;29;20734;-61
2022/06/06 06:46:47;;;;;;;4.47;2.53;;;14.00;99.90;;;;;;4950420;28;20482;-61
2022/06/06 06:49:27;;;;;;;5.63;2.45;;;13.90;99.90;;;;;;4936959;29;20039;-62
2022/06/06 06:52:06;;;;;;;3.40;2.20;;;13.90;99.90;;;;;;4935894;29;20039;-62
2022/06/06 06:54:37;;;;;;;5.35;2.30;;;14.00;99.90;;;;;;4949681;28;20458;-62
2022/06/06 06:57:09;;;;;;;3.95;2.58;;;14.00;99.90;;;;;;4922383;29;20070;-62
2022/06/06 07:00:03;;;;;;;6.57;2.80;;;14.00;99.90;;;;;;4954011;28;20070;-63
2022/06/06 07:08:35;;;;;;;7.03;3.08;;;14.20;99.90;;;;;;4933512;28;20260;-63
2022/06/06 07:11:15;;;;;;;9.27;3.75;;;14.20;99.90;;;;;;4939453;29;20035;-61
2022/06/06 07:14:00;;;;;;;6.82;3.10;;;14.30;99.90;;;;;;4932347;28;20154;-62
2022/06/06 07:16:37;;;;;;;6.35;2.90;;;14.40;99.90;;;;;;4949516;28;20067;-62
2022/06/06 07:19:19;;;;;;;7.65;3.33;;;14.40;99.90;;;;;;4933888;29;20559;-62
2022/06/06 07:21:46;;;;;;;6.85;3.45;;;14.40;99.90;;;;;;4947946;28;20080;-62
2022/06/06 07:24:17;;;;;;;4.05;2.60;;;14.40;99.90;;;;;;4915710;29;20473;-61
2022/06/06 07:26:44;;;;;;;4.70;2.45;;;14.40;99.90;;;;;;4930371;28;20075;-62
2022/06/06 07:29:13;;;;;;;4.78;2.70;;;14.40;99.90;;;;;;4931017;28;20047;-62
2022/06/06 07:32:07;;;;;;;6.03;3.30;;;14.40;99.90;;;;;;4934540;29;20055;-59
2022/06/06 07:35:00;;;;;;;4.60;2.63;;;14.50;99.90;;;;;;4938493;28;20035;-57
2022/06/06 07:38:00;;;;;;;5.78;2.72;;;14.40;99.90;;;;;;4908907;28;20051;-56
2022/06/06 07:41:01;;;;;;;6.15;3.05;;;14.50;99.90;;;;;;4945313;28;20129;-58
2022/06/06 07:43:44;;;;;;;7.25;3.55;;;14.50;99.90;;;;;;4934192;28;20071;-59
2022/06/06 07:46:28;;;;;;;6.97;3.43;;;14.50;99.90;;;;;;4937659;28;20112;-58
2022/06/06 07:49:18;;;;;;;9.68;3.97;;;14.60;99.90;;;;;;4935651;29;20306;-57
2022/06/06 07:52:03;;;;;;;5.95;3.83;;;14.60;99.90;;;;;;4938411;29;20055;-59
2022/06/06 07:54:38;;;;;;;7.07;3.75;;;14.80;99.90;;;;;;4933313;28;20055;-58
2022/06/06 07:57:07;;;;;;;8.75;4.15;;;14.90;99.90;;;;;;4938749;28;20089;-58
2022/06/06 07:59:47;;;;;;;6.07;3.58;;;15.10;99.90;;;;;;4928020;28;20056;-58
2022/06/06 08:02:22;;;;;;;6.95;3.83;;;15.20;99.90;;;;;;4931522;28;20046;-61
2022/06/06 08:05:20;;;;;;;6.53;4.45;;;15.40;99.90;;;;;;4934571;29;20402;-59
2022/06/06 08:08:08;;;;;;;9.35;4.00;;;15.60;99.90;;;;;;4946531;28;20048;-60
2022/06/06 08:10:44;;;;;;;11.38;3.42;;;15.50;99.90;;;;;;4932495;28;20043;-62
2022/06/06 08:13:21;;;;;;;5.90;3.28;;;15.50;99.90;;;;;;4930928;28;20258;-61
2022/06/06 08:15:47;;;;;;;8.48;3.95;;;15.60;99.90;;;;;;4948182;28;20046;-61
2022/06/06 08:18:36;;;;;;;6.70;3.90;;;15.50;99.90;;;;;;4948929;28;20047;-60
2022/06/06 08:21:14;;;;;;;9.88;3.78;;;15.50;99.90;;;;;;4949062;28;20048;-62
2022/06/06 08:23:41;;;;;;;10.98;4.43;;;15.50;99.90;;;;;;4945645;28;20130;-59
2022/06/06 08:26:08;;;;;;;8.90;4.47;;;15.40;99.90;;;;;;4952198;28;20039;-58
2022/06/06 08:28:39;;;;;;;8.07;3.65;;;15.40;99.90;;;;;;4931622;29;20498;-58
2022/06/06 08:31:06;;;;;;;5.90;3.35;;;15.40;99.90;;;;;;4934327;28;20056;-60
2022/06/06 08:33:32;;;;;;;6.30;3.40;;;15.50;99.90;;;;;;4956953;28;20047;-60
2022/06/06 08:36:26;;;;;;;6.35;2.80;;;15.50;99.90;;;;;;4930089;28;20119;-59
2022/06/06 08:39:11;;;;;;;7.57;3.03;;;15.50;99.90;;;;;;4962541;28;20603;-61
2022/06/06 08:42:08;;;;;;;7.43;2.65;;;15.50;99.90;;;;;;4942309;28;20058;-57
2022/06/06 08:45:01;;;;;;;5.32;2.40;;;15.40;99.90;;;;;;4928242;28;20058;-58
2022/06/06 08:47:35;;;;;;;4.73;3.33;;;15.30;99.90;;;;;;4937841;28;20138;-57
2022/06/06 08:50:47;;;;;;;7.70;3.40;;;15.20;99.90;;;;;;4950345;28;20062;-59
2022/06/06 08:53:31;;;;;;;6.72;3.88;;;15.20;99.90;;;;;;4935002;28;20054;-56
2022/06/06 08:56:08;;;;;;;5.90;3.53;;;15.20;99.90;;;;;;4937472;28;20067;-57
2022/06/06 08:59:01;;;;;;;6.68;3.28;;;15.20;99.90;;;;;;4936101;28;20063;-56
2022/06/06 09:01:30;;;;;;;4.97;3.10;;;15.30;99.90;;;;;;4951632;28;20055;-58
2022/06/06 09:04:01;;;;;;;5.90;3.53;;;15.40;99.90;;;;;;4925592;28;20134;-57
2022/06/06 09:07:09;;;;;;;5.45;3.00;;;15.40;99.90;;;;;;4955899;28;20082;-57
2022/06/06 09:10:09;;;;;;;6.25;3.05;;;15.40;99.90;;;;;;4933673;28;20083;-57
2022/06/06 09:13:12;;;;;;;8.57;3.92;;;15.40;99.90;;;;;;4927544;29;20532;-60
2022/06/06 09:16:16;;;;;;;5.50;3.60;;;15.40;99.90;;;;;;4960047;28;20043;-56
2022/06/06 09:19:01;;;;;;;7.07;3.58;;;15.40;99.90;;;;;;4937757;28;20090;-57
2022/06/06 09:22:04;;;;;;;9.48;5.55;;;15.40;99.90;;;;;;4942715;28;20051;-59
2022/06/06 09:24:41;;;;;;;8.10;4.93;;;15.40;99.90;;;;;;4939207;28;20050;-58
2022/06/06 09:27:44;;;;;;;9.77;4.82;;;15.50;99.90;;;;;;4941382;28;20090;-59
2022/06/06 09:30:47;;;;;;;10.50;5.47;;;15.60;99.90;;;;;;4939883;28;20050;-58
2022/06/06 09:33:58;;;;;;;10.00;4.90;;;15.60;99.90;;;;;;4937490;28;20043;-58
2022/06/06 09:37:09;;;;;;;6.82;4.47;;;15.80;99.90;;;;;;4945857;28;20524;-60
2022/06/06 09:39:44;;;;;;;9.70;5.30;;;15.80;99.90;;;;;;4917089;28;21338;-61
2022/06/06 09:42:21;;;;;;;8.73;4.20;;;16.00;99.90;;;;;;4927873;28;20117;-58
2022/06/06 09:44:59;;;;;;;10.15;4.05;;;16.10;99.90;;;;;;4931001;28;20083;-59
2022/06/06 09:47:34;;;;;;;7.05;3.30;;;16.10;99.90;;;;;;4936039;28;20672;-60
2022/06/06 09:50:14;;;;;;;7.03;3.60;;;16.30;99.90;;;;;;4937982;28;20052;-58
2022/06/06 09:52:56;;;;;;;11.50;2.90;;;16.60;99.90;;;;;;4934529;28;20134;-58
2022/06/06 09:59:23;;;;;;;7.95;2.60;;;16.90;99.90;;;;;;4936388;28;20051;-57
2022/06/06 10:01:38;;;;;;;6.05;2.47;;;17.00;99.90;;;;;;4920014;28;20688;-59
2022/06/06 10:04:41;;;;;;;4.68;2.05;;;16.90;99.90;;;;;;4930169;28;20150;-60
2022/06/06 10:07:50;;;;;;;5.95;2.08;;;16.80;99.90;;;;;;4933452;28;20059;-59
2022/06/06 10:10:43;;;;;;;5.90;1.95;;;16.80;99.90;;;;;;4928334;28;20039;-57
2022/06/06 10:13:38;;;;;;;6.93;2.28;;;16.80;99.90;;;;;;4936487;28;20138;-59
2022/06/06 10:16:24;;;;;;;9.77;2.58;;;16.70;99.90;;;;;;4951373;28;20047;-58
2022/06/06 10:19:10;;;;;;;6.70;2.20;;;16.80;99.90;;;;;;4957061;28;20102;-58
2022/06/06 10:21:57;;;;;;;7.25;2.47;;;16.90;99.90;;;;;;4956989;28;20356;-59
2022/06/06 10:24:48;;;;;;;5.18;1.70;;;16.90;99.90;;;;;;4936339;29;20815;-60
2022/06/06 10:27:20;;;;;;;4.97;1.90;;;17.00;99.90;;;;;;4938211;29;20134;-58
2022/06/06 10:30:10;;;;;;;6.18;2.10;;;16.90;99.90;;;;;;4936511;28;20530;-59
2022/06/06 10:33:10;;;;;;;4.53;1.75;;;17.00;99.90;;;;;;4954672;28;20325;-61
2022/06/06 10:35:48;;;;;;;4.30;1.50;;;17.00;99.90;;;;;;4952681;28;20138;-59
2022/06/06 10:38:25;;;;;;;4.28;1.33;;;17.20;99.90;;;;;;4937661;28;20271;-62
2022/06/06 10:40:51;;;;;;;5.20;1.50;;;17.30;99.90;;;;;;4948696;28;20054;-58
2022/06/06 10:44:01;;;;;;;4.65;1.73;;;17.20;99.90;;;;;;4934056;28;20608;-58
2022/06/06 10:46:33;;;;;;;4.63;2.03;;;17.50;99.90;;;;;;4918930;28;20053;-59
2022/06/06 10:49:25;;;;;;;5.97;1.63;;;17.80;99.90;;;;;;4910208;28;20054;-59
2022/06/06 10:52:04;;;;;;;6.60;1.70;;;18.00;99.90;;;;;;4934938;28;20059;-60
2022/06/06 10:54:38;;;;;;;5.00;1.45;;;18.10;99.90;;;;;;4946138;28;20051;-58
2022/06/06 10:57:42;;;;;;;5.00;1.48;;;18.10;99.90;;;;;;4938060;28;20036;-59
2022/06/06 11:00:20;;;;;;;4.57;1.50;;;17.90;99.90;;;;;;4953570;28;20121;-57
2022/06/06 11:03:23;;;;;;;7.55;1.92;;;17.60;99.90;;;;;;4924087;29;20047;-57
2022/06/06 11:06:26;;;;;;;5.28;1.67;;;17.40;99.90;;;;;;4954067;28;20609;-60
2022/06/06 11:09:13;;;;;;;5.03;1.33;;;17.30;99.90;;;;;;4938391;28;20443;-60
2022/06/06 11:12:07;;;;;;;5.28;1.63;;;17.20;99.90;;;;;;4937049;28;20070;-58
2022/06/06 11:14:44;;;;;;;6.18;1.98;;;17.10;99.90;;;;;;4939602;28;20054;-58
2022/06/06 11:17:27;;;;;;;6.07;2.00;;;17.10;99.90;;;;;;4938780;28;20040;-57
2022/06/06 11:20:18;;;;;;;7.90;2.22;;;17.10;99.90;;;;;;4934687;28;20067;-60
2022/06/06 11:23:11;;;;;;;6.97;2.05;;;17.10;99.90;;;;;;4954640;28;21245;-59
2022/06/06 11:26:01;;;;;;;6.93;1.80;;;17.00;99.90;;;;;;4933569;28;20307;-59
2022/06/06 11:28:46;;;;;;;5.15;1.60;;;17.00;99.90;;;;;;4940925;28;20059;-59
2022/06/06 11:31:33;;;;;;;7.00;1.98;;;17.00;99.90;;;;;;4931464;28;20043;-61
2022/06/06 11:34:00;;;;;;;5.13;2.15;;;16.90;99.90;;;;;;4939354;28;20063;-58
2022/06/06 11:36:50;;;;;;;6.78;2.30;;;16.90;99.90;;;;;;4936928;28;20084;-58
2022/06/06 11:39:25;;;;;;;4.30;2.22;;;16.90;99.90;;;;;;4939459;28;20581;-56
2022/06/06 11:42:06;;;;;;;11.13;2.17;;;16.80;99.90;;;;;;4940030;28;20446;-58
2022/06/06 11:45:00;;;;;;;3.85;1.67;;;16.90;99.90;;;;;;4930340;28;20054;-60
2022/06/06 11:47:33;;;;;;;8.25;2.22;;;16.90;99.90;;;;;;4929929;28;20594;-58
2022/06/06 11:50:27;;;;;;;6.38;2.03;;;16.90;99.90;;;;;;4938016;28;20176;-59
2022/06/06 11:53:27;;;;;;;13.23;3.17;;;16.90;99.90;;;;;;4931293;28;20157;-59
2022/06/06 11:56:10;;;;;;;5.75;2.00;;;16.90;99.90;;;;;;4937899;28;20043;-60
2022/06/06 11:58:36;;;;;;;4.47;1.95;;;16.80;99.90;;;;;;4942586;28;20059;-58
2022/06/06 12:01:29;;;;;;;5.70;2.30;;;16.80;99.90;;;;;;4932488;28;20048;-57
2022/06/06 12:04:15;;;;;;;5.78;2.47;;;16.80;99.90;;;;;;4924694;28;20585;-58
2022/06/06 12:07:16;;;;;;;8.20;2.40;;;16.80;99.90;;;;;;4920102;28;20052;-58
2022/06/06 12:10:00;;;;;;;5.70;2.25;;;16.70;99.90;;;;;;4956438;28;20542;-59
2022/06/06 12:12:45;;;;;;;7.85;3.05;;;16.70;99.90;;;;;;4929214;28;20055;-58
2022/06/06 12:15:45;;;;;;;6.18;2.80;;;16.60;99.90;;;;;;4926402;29;20406;-59
2022/06/06 12:18:17;;;;;;;8.02;2.40;;;16.50;99.90;;;;;;4934856;28;20061;-59
2022/06/06 12:21:22;;;;;;;6.38;2.90;;;16.50;99.90;;;;;;4951113;28;20039;-61
2022/06/06 12:23:54;;;;;;;5.75;2.00;;;16.40;99.90;;;;;;4928549;29;20047;-59
2022/06/06 12:26:31;;;;;;;6.90;2.42;;;16.40;99.90;;;;;;4931255;28;20047;-61
2022/06/06 12:29:06;;;;;;;6.40;2.60;;;16.30;99.90;;;;;;4942763;28;20058;-58
2022/06/06 12:31:44;;;;;;;5.90;2.45;;;16.20;99.90;;;;;;4929903;28;20498;-58
2022/06/06 12:34:35;;;;;;;8.27;3.10;;;16.10;99.90;;;;;;4948552;28;20686;-58
2022/06/06 12:37:09;;;;;;;9.75;3.13;;;15.90;99.90;;;;;;4952758;28;20491;-58
2022/06/06 12:39:40;;;;;;;4.88;3.15;;;15.90;99.90;;;;;;4938836;29;20537;-58
2022/06/06 12:42:12;;;;;;;8.60;4.05;;;15.80;99.90;;;;;;4928470;28;20640;-60
2022/06/06 12:45:00;;;;;;;7.72;4.38;;;15.70;99.90;;;;;;4937033;28;20047;-58
2022/06/06 12:47:40;;;;;;;12.63;3.55;;;15.50;99.90;;;;;;4952401;28;20129;-61
2022/06/06 12:50:28;;;;;;;5.10;2.97;;;15.40;99.90;;;;;;4934005;28;20101;-59
2022/06/06 12:53:09;;;;;;;4.03;2.10;;;15.30;99.90;;;;;;4934436;28;20093;-60
2022/06/06 12:58:46;;;;;;;4.57;1.50;;;15.10;99.90;;;;;;4937510;28;20054;-58
2022/06/06 13:01:38;;;;;;;2.78;1.40;;;15.10;99.90;;;;;;4949463;28;20039;-59
2022/06/06 13:04:22;;;;;;;3.45;1.58;;;15.10;99.90;;;;;;4935543;28;20079;-60
2022/06/06 13:06:54;;;;;;;;;;;15.10;99.90;;;;;;4939669;28;20129;-59
2022/06/06 13:10:03;;;;;;;2.72;1.65;;;15.20;99.90;;;;;;4951200;28;20125;-60
2022/06/06 13:12:41;;;;;;;4.68;2.38;;;15.20;99.90;;;;;;4936132;28;20406;-61
2022/06/06 13:15:25;;;;;;;4.53;2.33;;;15.30;99.90;;;;;;4950907;28;20507;-58
2022/06/06 13:18:42;;;;;;;4.88;2.45;;;15.30;99.90;;;;;;4932798;28;20075;-58
2022/06/06 13:21:42;;;;;;;4.25;2.60;;;15.30;99.90;;;;;;4885589;29;20050;-59
2022/06/06 13:24:07;;;;;;;4.93;2.88;;;15.40;99.90;;;;;;4929863;28;20083;-59
2022/06/06 13:26:46;;;;;;;4.80;2.75;;;15.40;99.90;;;;;;4938820;28;20619;-59
2022/06/06 13:29:28;;;;;;;3.67;1.70;;;15.30;99.90;;;;;;4936830;28;21241;-60
2022/06/06 13:31:57;;;;;;;4.53;2.22;;;15.20;99.90;;;;;;4933690;28;20188;-59
2022/06/06 13:34:38;;;;;;;4.18;2.28;;;15.10;99.90;;;;;;4923001;29;20463;-60
2022/06/06 13:37:16;;;;;;;3.92;2.00;;;15.10;99.90;;;;;;4931771;28;20043;-60
2022/06/06 13:39:48;;;;;;;3.67;1.92;;;15.10;99.90;;;;;;4954663;28;20460;-59
2022/06/06 13:42:49;;;;;;;5.13;2.38;;;15.10;99.90;;;;;;4951890;28;20047;-60
2022/06/06 13:45:27;;;;;;;4.05;2.72;;;15.10;99.90;;;;;;4932996;28;20048;-60
2022/06/06 13:48:07;;;;;;;2.85;1.90;;;15.00;99.90;;;;;;4951446;28;20126;-59
2022/06/06 13:50:33;;;;;;;2.92;1.63;;;14.90;99.90;;;;;;4922186;28;20035;-60
2022/06/06 13:53:09;;;;;;;5.30;2.00;;;14.90;99.90;;;;;;4934380;28;20534;-59
2022/06/06 13:55:37;;;;;;;4.15;1.92;;;14.90;99.90;;;;;;4952804;28;20494;-60
2022/06/06 13:58:13;;;;;;;2.55;1.40;;;14.80;99.90;;;;;;4921730;28;20561;-59
2022/06/06 14:01:01;;;;;;;2.70;2.17;;;14.80;99.90;;;;;;4951101;28;20054;-59
2022/06/06 14:03:37;;;;;;;2.00;0.80;;;14.90;99.90;;;;;;4936442;28;20054;-60
2022/06/06 14:06:17;;;;;;;4.07;1.00;;;14.80;99.90;;;;;;4934609;28;20499;-60
2022/06/06 14:08:52;;;;;;;1.63;0.95;;;14.80;99.90;;;;;;4941426;28;20091;-59